Página principal
METAR-TAF:

METAR-TAF

Aeroportos :

Duchambe, Tadjiquistão

latitude: 38-33N, longitude: 068-47E, altura: 803 m

Observação actual do tempo

O boletim foi feito há 44 minutos, às 01:30 UTC
Vento 4 kt de nordeste
Temperatura 9°C
Humidade 81%
Pressão 1021 hPa
Visibilidade 10 km ou mais

METAR: UTDD 280130Z 04002MPS 9999 NSC 09/06 Q1021 R09/D NOSIG RMK QFE697/0930

Hora: 07:14 (02:14 UTC)

Previsão

O boletim foi feito há 2 horas e 14 minutos, às 00:00 UTC
Previsão válida de 28 às 01 UTC a 28 às 13 UTC
Vento 4 kt com direcção variável
Visibilidade: 6000 m
Nuvens dispersasa uma altura de 6000 ft, Cumulonimbus.
Nuvens fragmentadasa uma altura de 8000 ft

TAF: UTDD 280000Z 2801/2813 VRB02MPS 6000 SCT060CB BKN080

Observações e previsões do tempo de mais de 4000 aeroportos (mensagens METAR e TAF).

As estações disponíveis são os pontos amarelos e vermelhos sobre o mapa.

Mova o rato sobre o mapa para ver o nome da estação.

Depois clique no ponto para visualizar as observações e previsões meteorológicas.

Para alterar o mapa : clique nos botões verdes com uma cruz preta para aumentar o zoom; no botão verde com uma pitada de zoom; ou nas setas verdes para mapas adjacentes.


METAR-TAF: